createdAt,value
2023-02-22T00:01:08.164Z,12.73
2023-02-22T00:03:39.030Z,12.20
2023-02-22T00:06:07.825Z,12.90
2023-02-22T00:08:37.750Z,11.93
2023-02-22T00:11:09.130Z,12.88
2023-02-22T00:13:38.511Z,14.02
2023-02-22T00:16:08.247Z,12.75
2023-02-22T00:18:37.738Z,12.23
2023-02-22T00:21:10.501Z,12.38
2023-02-22T00:23:43.262Z,12.43
2023-02-22T00:26:11.363Z,12.48
2023-02-22T00:28:39.977Z,11.75
2023-02-22T00:31:09.440Z,13.52
2023-02-22T00:33:40.432Z,11.85
2023-02-22T00:36:10.779Z,13.50
2023-02-22T00:38:39.475Z,11.88
2023-02-22T00:41:08.085Z,14.30
2023-02-22T00:43:36.386Z,13.30
2023-02-22T00:46:04.908Z,13.23
2023-02-22T00:48:33.075Z,12.18
2023-02-22T00:51:02.596Z,12.98
2023-02-22T00:53:31.181Z,12.55
2023-02-22T00:55:59.272Z,13.98
2023-02-22T00:58:28.778Z,12.20
2023-02-22T01:00:59.016Z,12.07
2023-02-22T01:03:27.118Z,13.15
2023-02-22T01:05:55.307Z,12.73
2023-02-22T01:08:25.032Z,11.32
2023-02-22T01:10:53.493Z,12.90
2023-02-22T01:13:21.556Z,12.13
2023-02-22T01:15:49.873Z,12.27
2023-02-22T01:18:18.130Z,14.07
2023-02-22T01:20:47.850Z,14.57
2023-02-22T01:23:17.325Z,14.25
2023-02-22T01:25:47.039Z,14.02
2023-02-22T01:28:16.016Z,13.95
2023-02-22T01:30:44.280Z,13.50
2023-02-22T01:33:13.748Z,14.02
2023-02-22T01:35:43.521Z,14.10
2023-02-22T01:38:11.855Z,12.77
2023-02-22T01:40:44.222Z,12.35
2023-02-22T01:43:23.768Z,14.43
2023-02-22T01:45:59.906Z,13.98
2023-02-22T01:48:36.872Z,14.18
2023-02-22T01:51:12.433Z,13.73
2023-02-22T01:53:49.776Z,14.57
2023-02-22T01:56:20.301Z,13.85
2023-02-22T01:58:56.122Z,15.15
2023-02-22T02:01:26.780Z,14.25
2023-02-22T02:04:00.958Z,13.73
2023-02-22T02:06:34.024Z,13.40
2023-02-22T02:09:10.697Z,14.02
2023-02-22T02:11:41.659Z,13.82
2023-02-22T02:14:12.513Z,14.52
2023-02-22T02:16:44.515Z,13.25
2023-02-22T02:19:24.011Z,13.57
2023-02-22T02:22:22.050Z,13.98
2023-02-22T02:25:46.621Z,13.73
2023-02-22T02:29:04.087Z,13.13
2023-02-22T02:32:22.253Z,13.82
2023-02-22T02:34:59.523Z,12.40
2023-02-22T02:37:38.459Z,12.55
2023-02-22T02:40:21.986Z,12.27
2023-02-22T02:43:01.573Z,10.93
2023-02-22T02:45:36.414Z,11.70
2023-02-22T02:48:10.922Z,12.85
2023-02-22T02:50:45.761Z,13.07
2023-02-22T02:53:18.352Z,13.20
2023-02-22T02:55:46.413Z,12.18
2023-02-22T02:58:20.974Z,11.45
2023-02-22T03:00:55.508Z,10.77
2023-02-22T03:04:03.087Z,11.82
2023-02-22T03:07:06.138Z,10.90
2023-02-22T03:09:58.328Z,10.95
2023-02-22T03:12:43.759Z,9.48
2023-02-22T03:15:29.686Z,11.23
2023-02-22T03:18:07.113Z,10.77
2023-02-22T03:20:51.216Z,10.75
2023-02-22T03:23:27.014Z,11.05
2023-02-22T03:26:02.576Z,10.35
2023-02-22T03:28:35.592Z,10.52
2023-02-22T03:31:10.910Z,9.18
2023-02-22T03:33:44.054Z,8.95
2023-02-22T03:36:24.842Z,8.88
2023-02-22T03:38:58.768Z,10.93
2023-02-22T03:41:29.660Z,10.00
2023-02-22T03:44:06.589Z,10.35
2023-02-22T03:46:39.169Z,9.60
2023-02-22T03:49:15.637Z,8.63
2023-02-22T03:51:45.765Z,8.60
2023-02-22T03:54:16.323Z,8.20
2023-02-22T03:56:54.133Z,8.80
2023-02-22T03:59:27.279Z,9.23
2023-02-22T04:01:56.679Z,8.60
2023-02-22T04:04:26.622Z,7.28
2023-02-22T04:06:56.327Z,8.30
2023-02-22T04:09:24.823Z,8.90
2023-02-22T04:11:52.959Z,8.10
2023-02-22T04:14:23.773Z,7.77
2023-02-22T04:16:52.247Z,8.77
2023-02-22T04:19:20.346Z,8.33
2023-02-22T04:21:49.216Z,8.10
2023-02-22T04:24:24.081Z,7.40
2023-02-22T04:26:52.854Z,7.33
2023-02-22T04:29:22.194Z,7.05
2023-02-22T04:31:50.339Z,5.80
2023-02-22T04:34:18.503Z,7.10
2023-02-22T04:36:47.013Z,6.33
2023-02-22T04:39:16.002Z,6.97
2023-02-22T04:41:47.423Z,7.20
2023-02-22T04:44:15.722Z,7.17
2023-02-22T04:46:43.817Z,6.57
2023-02-22T04:49:14.369Z,7.60
2023-02-22T04:51:43.888Z,7.30
2023-02-22T04:54:14.091Z,7.03
2023-02-22T04:56:46.938Z,7.47
2023-02-22T04:59:15.326Z,7.03
2023-02-22T05:01:46.399Z,6.77
2023-02-22T05:04:14.660Z,6.90
2023-02-22T05:06:42.912Z,6.85
2023-02-22T05:09:11.373Z,6.93
2023-02-22T05:11:39.484Z,6.38
2023-02-22T05:14:08.948Z,7.33
2023-02-22T05:16:37.452Z,7.07
2023-02-22T05:19:05.817Z,6.93
2023-02-22T05:21:33.866Z,6.90
2023-02-22T05:24:01.962Z,5.97
2023-02-22T05:26:30.037Z,6.80
2023-02-22T05:28:58.356Z,6.83
2023-02-22T05:31:31.005Z,6.27
2023-02-22T05:34:01.289Z,7.13
2023-02-22T05:36:29.415Z,6.03
2023-02-22T05:38:57.696Z,7.30
2023-02-22T05:41:25.887Z,7.10
2023-02-22T05:43:53.990Z,6.55
2023-02-22T05:46:22.414Z,7.27
2023-02-22T05:48:51.859Z,6.43
2023-02-22T05:51:20.449Z,6.72
2023-02-22T05:53:51.917Z,6.97
2023-02-22T05:56:25.177Z,5.87
2023-02-22T05:58:53.440Z,6.83
2023-02-22T06:01:22.914Z,5.70
2023-02-22T06:03:53.369Z,6.00
2023-02-22T06:06:22.645Z,6.17
2023-02-22T06:08:51.159Z,6.67
2023-02-22T06:11:20.332Z,6.27
2023-02-22T06:13:52.385Z,6.80
2023-02-22T06:16:21.921Z,5.77
2023-02-22T06:18:51.918Z,5.40
2023-02-22T06:21:20.077Z,5.33
2023-02-22T06:23:48.122Z,5.77
2023-02-22T06:26:18.272Z,5.60
2023-02-22T06:28:46.852Z,6.17
2023-02-22T06:31:15.339Z,6.30
2023-02-22T06:33:43.619Z,5.67
2023-02-22T06:36:13.035Z,6.33
2023-02-22T06:38:41.377Z,5.50
2023-02-22T06:41:10.662Z,5.13
2023-02-22T06:43:38.803Z,5.30
2023-02-22T06:46:10.920Z,4.83
2023-02-22T06:48:40.204Z,5.10
2023-02-22T06:51:10.614Z,4.83
2023-02-22T06:53:40.083Z,4.73
2023-02-22T06:56:08.319Z,4.83
2023-02-22T06:58:36.369Z,4.43
2023-02-22T07:01:06.601Z,5.07
2023-02-22T07:03:35.615Z,4.67
2023-02-22T07:06:04.285Z,4.53
2023-02-22T07:08:32.412Z,4.43
2023-02-22T07:11:01.881Z,3.83
2023-02-22T07:13:30.196Z,4.50
2023-02-22T07:15:58.396Z,4.20
2023-02-22T07:18:26.538Z,4.53
2023-02-22T07:20:55.221Z,5.43
2023-02-22T07:23:24.135Z,5.00
2023-02-22T07:25:52.335Z,4.90
2023-02-22T07:28:21.735Z,5.07
2023-02-22T07:30:49.868Z,5.27
2023-02-22T07:33:18.337Z,4.83
2023-02-22T07:35:48.705Z,4.50
2023-02-22T07:38:19.809Z,4.20
2023-02-22T07:40:48.077Z,4.33
2023-02-22T07:43:19.310Z,4.30
2023-02-22T07:45:50.872Z,4.60
2023-02-22T07:48:21.045Z,4.70
2023-02-22T07:50:49.906Z,3.80
2023-02-22T07:53:21.839Z,3.93
2023-02-22T07:55:51.112Z,4.03
2023-02-22T07:58:23.065Z,4.30
2023-02-22T08:00:52.930Z,4.40
2023-02-22T08:03:24.186Z,3.93
2023-02-22T08:05:55.685Z,4.33
2023-02-22T08:08:24.310Z,4.90
2023-02-22T08:10:53.168Z,3.43
2023-02-22T08:13:23.162Z,4.27
2023-02-22T08:15:54.782Z,4.23
2023-02-22T08:18:24.599Z,4.60
2023-02-22T08:20:54.759Z,4.57
2023-02-22T08:23:27.007Z,4.10
2023-02-22T08:25:56.213Z,4.30
2023-02-22T08:28:25.752Z,4.73
2023-02-22T08:30:55.234Z,4.07
2023-02-22T08:33:24.606Z,4.33
2023-02-22T08:35:52.925Z,3.97
2023-02-22T08:38:24.458Z,4.60
2023-02-22T08:40:53.052Z,4.90
2023-02-22T08:43:22.792Z,4.83
2023-02-22T08:45:52.504Z,5.23
2023-02-22T08:48:22.497Z,4.23
2023-02-22T08:50:50.872Z,5.00
2023-02-22T08:53:19.525Z,5.03
2023-02-22T08:55:48.000Z,4.47
2023-02-22T08:58:16.172Z,4.30
2023-02-22T09:00:45.050Z,4.93
2023-02-22T09:03:15.490Z,4.47
2023-02-22T09:05:46.005Z,4.80
2023-02-22T09:08:16.179Z,5.17
2023-02-22T09:10:45.239Z,5.33
2023-02-22T09:13:14.293Z,5.10
2023-02-22T09:15:42.448Z,5.33
2023-02-22T09:18:14.528Z,4.50
2023-02-22T09:20:44.376Z,5.37
2023-02-22T09:23:14.390Z,4.53
2023-02-22T09:25:42.601Z,5.20
2023-02-22T09:28:10.675Z,5.30
2023-02-22T09:30:39.207Z,4.87
2023-02-22T09:33:10.888Z,4.97
2023-02-22T09:35:42.130Z,5.63
2023-02-22T09:38:12.290Z,5.23
2023-02-22T09:40:46.847Z,5.37
2023-02-22T09:43:41.451Z,5.53
2023-02-22T09:46:35.296Z,5.87
2023-02-22T09:49:08.321Z,5.80
2023-02-22T09:51:43.944Z,5.93
2023-02-22T09:54:23.641Z,6.43
2023-02-22T09:56:57.276Z,6.43
2023-02-22T09:59:32.821Z,6.53
2023-02-22T10:02:14.290Z,5.90
2023-02-22T10:04:47.867Z,6.00
2023-02-22T10:07:25.938Z,6.13
2023-02-22T10:09:58.470Z,6.93
2023-02-22T10:12:35.740Z,7.68
2023-02-22T10:15:48.934Z,6.72
2023-02-22T10:19:12.133Z,7.65
2023-02-22T10:21:57.768Z,7.35
2023-02-22T10:24:39.922Z,8.18
2023-02-22T10:27:18.828Z,7.25
2023-02-22T10:29:53.592Z,8.13
2023-02-22T10:32:30.244Z,7.88
2023-02-22T10:35:05.400Z,7.57
2023-02-22T10:37:35.642Z,7.47
2023-02-22T10:40:17.637Z,7.57
2023-02-22T10:42:48.002Z,7.88
2023-02-22T10:45:25.543Z,7.57
2023-02-22T10:47:59.128Z,7.72
2023-02-22T10:50:30.451Z,7.57
2023-02-22T10:52:58.672Z,7.50
2023-02-22T10:55:27.316Z,9.18
2023-02-22T10:58:06.765Z,8.60
2023-02-22T11:00:38.215Z,8.18
2023-02-22T11:03:18.596Z,8.23
2023-02-22T11:05:47.022Z,8.75
2023-02-22T11:08:29.029Z,8.35
2023-02-22T11:11:01.496Z,8.40
2023-02-22T11:13:34.244Z,8.60
2023-02-22T11:16:19.376Z,9.45
2023-02-22T11:18:49.328Z,8.98
2023-02-22T11:21:24.139Z,8.50
2023-02-22T11:24:03.866Z,9.75
2023-02-22T11:26:42.426Z,9.02
2023-02-22T11:29:21.280Z,8.73
2023-02-22T11:31:50.903Z,8.73
2023-02-22T11:34:34.752Z,9.48
2023-02-22T11:37:30.512Z,8.70
2023-02-22T11:40:19.471Z,7.45
2023-02-22T11:42:48.205Z,8.20
2023-02-22T11:45:23.610Z,7.35
2023-02-22T11:47:55.999Z,8.48
2023-02-22T11:50:34.627Z,8.05
2023-02-22T11:53:28.158Z,7.50
2023-02-22T11:56:17.314Z,7.45
2023-02-22T11:58:51.145Z,7.40
2023-02-22T12:01:30.700Z,7.22
2023-02-22T12:04:38.209Z,7.60
2023-02-22T12:07:32.845Z,8.13
2023-02-22T12:10:18.135Z,7.55
2023-02-22T12:13:07.297Z,7.03
2023-02-22T12:15:45.340Z,7.57
2023-02-22T12:18:25.336Z,8.05
2023-02-22T12:20:59.417Z,6.68
2023-02-22T12:23:40.552Z,7.38
2023-02-22T12:26:16.576Z,7.25
2023-02-22T12:28:52.425Z,7.70
2023-02-22T12:31:26.764Z,7.82
2023-02-22T12:34:24.886Z,7.28
2023-02-22T12:36:58.546Z,6.80
2023-02-22T12:39:52.807Z,6.25
2023-02-22T12:42:30.928Z,7.30
2023-02-22T12:45:08.329Z,6.88
2023-02-22T12:47:46.725Z,7.45
2023-02-22T12:50:23.618Z,7.22
2023-02-22T12:52:58.736Z,6.72
2023-02-22T12:55:32.602Z,6.85
2023-02-22T12:58:17.065Z,7.18
2023-02-22T13:00:56.782Z,5.47
2023-02-22T13:03:36.668Z,6.35
2023-02-22T13:06:27.415Z,6.75
2023-02-22T13:09:14.490Z,6.22
2023-02-22T13:11:53.012Z,6.07
2023-02-22T13:14:46.093Z,5.53
2023-02-22T13:17:26.690Z,5.90
2023-02-22T13:20:06.039Z,6.82
2023-02-22T13:22:43.379Z,5.28
2023-02-22T13:25:20.274Z,5.82
2023-02-22T13:27:56.253Z,6.13
2023-02-22T13:30:37.416Z,6.68
2023-02-22T13:33:38.232Z,6.18
2023-02-22T13:36:31.063Z,6.00
2023-02-22T13:39:39.097Z,6.38
2023-02-22T13:42:34.596Z,6.20
2023-02-22T13:45:55.192Z,5.90
2023-02-22T13:48:46.858Z,6.05
2023-02-22T13:51:44.777Z,5.82
2023-02-22T13:54:24.422Z,5.25
2023-02-22T13:56:56.376Z,6.00
2023-02-22T13:59:33.832Z,5.03
2023-02-22T14:02:07.010Z,5.78
2023-02-22T14:04:42.080Z,5.60
2023-02-22T14:07:54.969Z,5.53
2023-02-22T14:10:49.987Z,5.40
2023-02-22T14:13:22.357Z,5.40
2023-02-22T14:16:25.648Z,5.68
2023-02-22T14:19:06.339Z,5.32
2023-02-22T14:21:35.952Z,5.22
2023-02-22T14:24:12.617Z,5.25
2023-02-22T14:27:01.295Z,4.65
2023-02-22T14:29:29.651Z,5.32
2023-02-22T14:32:04.785Z,5.47
2023-02-22T14:34:50.520Z,5.50
2023-02-22T14:37:24.781Z,5.50
2023-02-22T14:40:02.111Z,5.35
2023-02-22T14:42:36.935Z,4.97
2023-02-22T14:45:20.332Z,5.18
2023-02-22T14:48:01.030Z,5.35
2023-02-22T14:50:43.986Z,5.38
2023-02-22T14:53:25.267Z,5.25
2023-02-22T14:56:02.264Z,4.88
2023-02-22T14:58:40.751Z,5.10
2023-02-22T15:01:33.922Z,5.55
2023-02-22T15:04:25.509Z,5.13
2023-02-22T15:06:54.729Z,5.78
2023-02-22T15:09:29.256Z,4.65
2023-02-22T15:12:18.052Z,5.75
2023-02-22T15:14:48.466Z,5.50
2023-02-22T15:17:22.074Z,6.10
2023-02-22T15:19:50.977Z,4.55
2023-02-22T15:22:25.490Z,5.10
2023-02-22T15:25:02.181Z,5.30
2023-02-22T15:27:34.503Z,4.97
2023-02-22T15:30:26.740Z,5.20
2023-02-22T15:33:04.146Z,5.25
2023-02-22T15:35:34.519Z,5.72
2023-02-22T15:38:05.986Z,5.30
2023-02-22T15:40:34.840Z,5.20
2023-02-22T15:43:08.786Z,4.88
2023-02-22T15:45:42.752Z,4.95
2023-02-22T15:48:12.019Z,5.45
2023-02-22T15:50:40.129Z,4.95
2023-02-22T15:53:23.480Z,5.38
2023-02-22T15:55:59.217Z,4.85
2023-02-22T15:58:29.929Z,5.72
2023-02-22T16:01:06.243Z,5.35
2023-02-22T16:03:44.828Z,5.15
2023-02-22T16:06:22.024Z,5.20
2023-02-22T16:08:55.470Z,5.28
2023-02-22T16:11:30.655Z,5.15
2023-02-22T16:14:04.639Z,5.57
2023-02-22T16:16:36.835Z,5.47
2023-02-22T16:19:32.824Z,5.60
2023-02-22T16:22:04.142Z,6.60
2023-02-22T16:24:35.568Z,5.80
2023-02-22T16:27:17.208Z,6.40
2023-02-22T16:30:01.180Z,6.30
2023-02-22T16:32:30.786Z,6.70
2023-02-22T16:34:59.047Z,6.90
2023-02-22T16:37:28.483Z,6.63
2023-02-22T16:39:56.765Z,6.85
2023-02-22T16:42:25.060Z,6.80
2023-02-22T16:44:54.238Z,6.03
2023-02-22T16:47:22.442Z,7.10
2023-02-22T16:49:53.769Z,6.07
2023-02-22T16:52:22.554Z,6.82
2023-02-22T16:54:52.444Z,6.75
2023-02-22T16:57:23.750Z,6.10
2023-02-22T16:59:52.895Z,6.07
2023-02-22T17:02:22.638Z,5.75
2023-02-22T17:04:52.472Z,6.72
2023-02-22T17:07:29.855Z,6.00
2023-02-22T17:10:00.980Z,6.60
2023-02-22T17:12:31.798Z,5.90
2023-02-22T17:14:59.985Z,7.50
2023-02-22T17:17:28.197Z,6.25
2023-02-22T17:19:58.208Z,6.43
2023-02-22T17:22:26.311Z,5.95
2023-02-22T17:24:54.405Z,7.28
2023-02-22T17:27:22.595Z,6.57
2023-02-22T17:29:50.699Z,6.72
2023-02-22T17:32:18.930Z,7.25
2023-02-22T17:34:47.064Z,7.65
2023-02-22T17:37:16.523Z,7.57
2023-02-22T17:39:44.676Z,7.65
2023-02-22T17:42:15.535Z,8.40
2023-02-22T17:44:43.716Z,7.50
2023-02-22T17:47:11.817Z,8.60
2023-02-22T17:49:40.657Z,8.10
2023-02-22T17:52:09.547Z,7.22
2023-02-22T17:54:39.047Z,7.78
2023-02-22T17:57:07.151Z,6.45
2023-02-22T17:59:35.296Z,6.80
2023-02-22T18:02:03.547Z,7.22
2023-02-22T18:04:35.713Z,7.30
2023-02-22T18:07:04.398Z,6.47
2023-02-22T18:09:33.991Z,6.75
2023-02-22T18:12:03.744Z,6.95
2023-02-22T18:14:31.822Z,6.90
2023-02-22T18:17:01.400Z,6.45
2023-02-22T18:19:29.666Z,6.47
2023-02-22T18:22:00.209Z,7.53
2023-02-22T18:24:28.500Z,6.53
2023-02-22T18:26:56.871Z,6.43
2023-02-22T18:29:28.865Z,6.80
2023-02-22T18:31:57.275Z,6.78
2023-02-22T18:34:25.856Z,6.60
2023-02-22T18:36:54.210Z,6.53
2023-02-22T18:39:22.678Z,6.90
2023-02-22T18:41:50.808Z,6.43
2023-02-22T18:44:20.614Z,6.63
2023-02-22T18:46:50.155Z,6.72
2023-02-22T18:49:18.385Z,6.78
2023-02-22T18:51:46.979Z,6.68
2023-02-22T18:54:15.306Z,7.47
2023-02-22T18:56:43.558Z,7.63
2023-02-22T18:59:13.653Z,6.72
2023-02-22T19:01:48.594Z,6.50
2023-02-22T19:04:19.181Z,7.40
2023-02-22T19:06:49.653Z,7.43
2023-02-22T19:09:17.962Z,7.32
2023-02-22T19:11:48.233Z,7.07
2023-02-22T19:14:17.323Z,7.90
2023-02-22T19:16:46.459Z,7.30
2023-02-22T19:19:20.720Z,7.68
2023-02-22T19:21:49.394Z,7.40
2023-02-22T19:24:19.101Z,7.25
2023-02-22T19:26:50.618Z,6.50
2023-02-22T19:29:22.181Z,7.72
2023-02-22T19:31:51.603Z,6.75
2023-02-22T19:34:24.581Z,6.90
2023-02-22T19:36:53.482Z,6.47
2023-02-22T19:41:52.533Z,6.95
2023-02-22T19:44:23.400Z,7.00
2023-02-22T19:46:56.107Z,6.88
2023-02-22T19:49:36.815Z,7.28
2023-02-22T19:52:28.983Z,7.30
2023-02-22T19:55:06.312Z,7.80
2023-02-22T19:57:51.754Z,7.00
2023-02-22T20:00:35.635Z,7.60
2023-02-22T20:03:14.498Z,7.82
2023-02-22T20:05:48.362Z,8.07
2023-02-22T20:08:16.769Z,7.95
2023-02-22T20:10:46.422Z,8.18
2023-02-22T20:13:20.724Z,8.90
2023-02-22T20:15:50.627Z,10.52
2023-02-22T20:18:20.201Z,11.55
2023-02-22T20:20:54.931Z,12.15
2023-02-22T20:23:28.089Z,13.48
2023-02-22T20:26:04.517Z,13.60
2023-02-22T20:28:36.107Z,14.85
2023-02-22T20:31:11.204Z,14.95
2023-02-22T20:33:41.650Z,13.88
2023-02-22T20:36:16.060Z,13.57
2023-02-22T20:38:45.266Z,14.02
2023-02-22T20:41:20.619Z,14.63
2023-02-22T20:43:51.650Z,15.00
2023-02-22T20:46:20.106Z,14.77
2023-02-22T20:48:48.728Z,14.20
2023-02-22T20:51:18.566Z,15.10
2023-02-22T20:53:47.477Z,15.57
2023-02-22T20:56:19.394Z,15.05
2023-02-22T20:58:48.255Z,15.18
2023-02-22T21:01:19.345Z,15.52
2023-02-22T21:03:48.080Z,14.93
2023-02-22T21:06:21.389Z,15.13
2023-02-22T21:08:54.594Z,14.10
2023-02-22T21:11:25.428Z,13.85
2023-02-22T21:13:54.234Z,13.10
2023-02-22T21:16:26.200Z,14.18
2023-02-22T21:18:58.451Z,14.75
2023-02-22T21:21:29.420Z,13.75
2023-02-22T21:24:01.984Z,14.07
2023-02-22T21:26:34.975Z,14.88
2023-02-22T21:29:06.169Z,15.13
2023-02-22T21:31:37.621Z,14.25
2023-02-22T21:34:06.088Z,14.85
2023-02-22T21:36:35.567Z,15.15
2023-02-22T21:39:08.752Z,15.55
2023-02-22T21:41:38.745Z,15.38
2023-02-22T21:44:08.852Z,16.58
2023-02-22T21:46:37.190Z,14.82
2023-02-22T21:49:05.758Z,15.07
2023-02-22T21:51:37.601Z,16.15
2023-02-22T21:54:09.358Z,15.40
2023-02-22T21:56:41.113Z,15.40
2023-02-22T21:59:13.410Z,16.48
2023-02-22T22:01:46.965Z,16.38
2023-02-22T22:04:20.232Z,15.82
2023-02-22T22:06:52.436Z,15.75
2023-02-22T22:09:23.489Z,15.20
2023-02-22T22:11:54.422Z,16.17
2023-02-22T22:14:25.736Z,17.13
2023-02-22T22:16:58.542Z,16.00
2023-02-22T22:19:29.113Z,15.98
2023-02-22T22:21:59.236Z,16.02
2023-02-22T22:24:31.738Z,16.38
2023-02-22T22:27:06.061Z,15.10
2023-02-22T22:29:35.134Z,16.08
2023-02-22T22:32:03.765Z,16.33
2023-02-22T22:34:34.238Z,15.27
2023-02-22T22:37:03.793Z,15.55
2023-02-22T22:39:32.209Z,16.88
2023-02-22T22:42:00.342Z,16.67
2023-02-22T22:44:32.527Z,16.10
2023-02-22T22:47:00.808Z,15.70
2023-02-22T22:49:31.189Z,17.42
2023-02-22T22:51:59.374Z,15.90
2023-02-22T22:54:28.974Z,16.23
2023-02-22T22:56:57.207Z,15.80
2023-02-22T22:59:27.686Z,16.52
2023-02-22T23:01:56.608Z,16.40
2023-02-22T23:04:25.407Z,16.90
2023-02-22T23:06:55.444Z,16.77
2023-02-22T23:09:25.962Z,15.48
2023-02-22T23:11:58.091Z,17.85
2023-02-22T23:14:31.058Z,17.42
2023-02-22T23:17:03.216Z,17.00
2023-02-22T23:19:32.553Z,17.30
2023-02-22T23:22:01.515Z,15.88
2023-02-22T23:24:29.661Z,14.95
2023-02-22T23:27:00.379Z,15.73
2023-02-22T23:29:30.722Z,16.35
2023-02-22T23:31:59.110Z,16.63
2023-02-22T23:34:28.842Z,16.95
2023-02-22T23:36:57.194Z,17.00
2023-02-22T23:39:26.317Z,17.13
2023-02-22T23:41:58.305Z,16.35
2023-02-22T23:44:28.885Z,15.88
2023-02-22T23:46:57.505Z,17.05
2023-02-22T23:49:35.497Z,17.00
2023-02-22T23:52:04.483Z,16.15
2023-02-22T23:54:36.262Z,16.95
2023-02-22T23:57:05.614Z,16.25
2023-02-22T23:59:35.851Z,17.17
